sensor_id;sensor_type;location;lat;lon;timestamp;temperature;humidity
16106;DHT22;8157;51.480;6.624;2023-06-01T00:01:52;17.60;62.10
16106;DHT22;8157;51.480;6.624;2023-06-01T00:04:19;17.50;62.10
16106;DHT22;8157;51.480;6.624;2023-06-01T00:06:48;17.40;62.30
16106;DHT22;8157;51.480;6.624;2023-06-01T00:09:15;17.40;62.60
16106;DHT22;8157;51.480;6.624;2023-06-01T00:11:42;17.30;62.70
16106;DHT22;8157;51.480;6.624;2023-06-01T00:14:10;17.30;63.10
16106;DHT22;8157;51.480;6.624;2023-06-01T00:16:37;17.30;63.10
16106;DHT22;8157;51.480;6.624;2023-06-01T00:19:04;17.20;63.20
16106;DHT22;8157;51.480;6.624;2023-06-01T00:21:32;17.10;63.30
16106;DHT22;8157;51.480;6.624;2023-06-01T00:24:02;17.00;63.30
16106;DHT22;8157;51.480;6.624;2023-06-01T00:26:29;17.00;63.70
16106;DHT22;8157;51.480;6.624;2023-06-01T00:28:58;16.90;63.70
16106;DHT22;8157;51.480;6.624;2023-06-01T00:31:26;16.90;63.80
16106;DHT22;8157;51.480;6.624;2023-06-01T00:33:53;16.80;64.00
16106;DHT22;8157;51.480;6.624;2023-06-01T00:36:21;16.80;64.10
16106;DHT22;8157;51.480;6.624;2023-06-01T00:38:48;16.70;64.10
16106;DHT22;8157;51.480;6.624;2023-06-01T00:41:16;16.70;64.40
16106;DHT22;8157;51.480;6.624;2023-06-01T00:43:43;16.60;64.50
16106;DHT22;8157;51.480;6.624;2023-06-01T00:46:10;16.50;64.50
16106;DHT22;8157;51.480;6.624;2023-06-01T00:48:39;16.50;64.70
16106;DHT22;8157;51.480;6.624;2023-06-01T00:51:07;16.50;64.90
16106;DHT22;8157;51.480;6.624;2023-06-01T00:53:34;16.40;65.00
16106;DHT22;8157;51.480;6.624;2023-06-01T00:56:02;16.40;65.10
16106;DHT22;8157;51.480;6.624;2023-06-01T00:58:31;16.30;65.20
16106;DHT22;8157;51.480;6.624;2023-06-01T01:00:58;16.30;65.50
16106;DHT22;8157;51.480;6.624;2023-06-01T01:03:27;16.20;65.50
16106;DHT22;8157;51.480;6.624;2023-06-01T01:06:07;16.20;65.60
16106;DHT22;8157;51.480;6.624;2023-06-01T01:08:50;16.10;65.80
16106;DHT22;8157;51.480;6.624;2023-06-01T01:11:29;17.40;66.20
16106;DHT22;8157;51.480;6.624;2023-06-01T01:14:08;15.60;65.50
16106;DHT22;8157;51.480;6.624;2023-06-01T01:16:45;17.60;67.10
16106;DHT22;8157;51.480;6.624;2023-06-01T01:19:41;16.40;65.70
16106;DHT22;8157;51.480;6.624;2023-06-01T01:22:25;15.90;66.30
16106;DHT22;8157;51.480;6.624;2023-06-01T01:25:11;15.80;66.80
16106;DHT22;8157;51.480;6.624;2023-06-01T01:27:52;15.80;67.10
16106;DHT22;8157;51.480;6.624;2023-06-01T01:30:27;15.90;66.90
16106;DHT22;8157;51.480;6.624;2023-06-01T01:32:58;16.60;67.30
16106;DHT22;8157;51.480;6.624;2023-06-01T01:35:29;16.80;67.00
16106;DHT22;8157;51.480;6.624;2023-06-01T01:37:58;15.50;66.80
16106;DHT22;8157;51.480;6.624;2023-06-01T01:40:27;15.70;66.30
16106;DHT22;8157;51.480;6.624;2023-06-01T01:43:10;14.90;66.10
16106;DHT22;8157;51.480;6.624;2023-06-01T01:46:21;16.40;68.80
16106;DHT22;8157;51.480;6.624;2023-06-01T01:48:58;15.40;68.00
16106;DHT22;8157;51.480;6.624;2023-06-01T01:51:36;16.00;68.30
16106;DHT22;8157;51.480;6.624;2023-06-01T01:54:05;16.60;68.80
16106;DHT22;8157;51.480;6.624;2023-06-01T01:56:35;15.20;67.20
16106;DHT22;8157;51.480;6.624;2023-06-01T01:59:03;15.30;68.20
16106;DHT22;8157;51.480;6.624;2023-06-01T02:01:35;15.20;67.90
16106;DHT22;8157;51.480;6.624;2023-06-01T02:04:06;16.20;69.00
16106;DHT22;8157;51.480;6.624;2023-06-01T02:06:35;16.20;68.60
16106;DHT22;8157;51.480;6.624;2023-06-01T02:09:03;15.10;68.10
16106;DHT22;8157;51.480;6.624;2023-06-01T02:11:35;15.00;68.00
16106;DHT22;8157;51.480;6.624;2023-06-01T02:14:14;15.30;68.60
16106;DHT22;8157;51.480;6.624;2023-06-01T02:16:51;14.90;69.00
16106;DHT22;8157;51.480;6.624;2023-06-01T02:19:20;14.80;68.10
16106;DHT22;8157;51.480;6.624;2023-06-01T02:21:52;15.30;68.30
16106;DHT22;8157;51.480;6.624;2023-06-01T02:24:24;14.80;68.50
16106;DHT22;8157;51.480;6.624;2023-06-01T02:26:51;14.70;68.20
16106;DHT22;8157;51.480;6.624;2023-06-01T02:29:20;16.20;69.30
16106;DHT22;8157;51.480;6.624;2023-06-01T02:31:48;14.70;68.70
16106;DHT22;8157;51.480;6.624;2023-06-01T02:34:18;14.60;69.40
16106;DHT22;8157;51.480;6.624;2023-06-01T02:36:49;15.00;70.10
16106;DHT22;8157;51.480;6.624;2023-06-01T02:39:21;14.50;69.10
16106;DHT22;8157;51.480;6.624;2023-06-01T02:41:49;14.50;68.90
16106;DHT22;8157;51.480;6.624;2023-06-01T02:44:18;14.80;69.30
16106;DHT22;8157;51.480;6.624;2023-06-01T02:46:45;15.70;70.00
16106;DHT22;8157;51.480;6.624;2023-06-01T02:49:14;14.30;69.20
16106;DHT22;8157;51.480;6.624;2023-06-01T02:51:43;14.40;69.90
16106;DHT22;8157;51.480;6.624;2023-06-01T02:54:17;14.40;70.20
16106;DHT22;8157;51.480;6.624;2023-06-01T02:56:45;15.00;70.90
16106;DHT22;8157;51.480;6.624;2023-06-01T02:59:26;14.40;70.60
16106;DHT22;8157;51.480;6.624;2023-06-01T03:02:03;14.50;70.10
16106;DHT22;8157;51.480;6.624;2023-06-01T03:04:30;14.50;70.20
16106;DHT22;8157;51.480;6.624;2023-06-01T03:07:00;14.50;70.10
16106;DHT22;8157;51.480;6.624;2023-06-01T03:09:42;14.50;70.10
16106;DHT22;8157;51.480;6.624;2023-06-01T03:12:18;15.10;70.30
16106;DHT22;8157;51.480;6.624;2023-06-01T03:14:46;14.50;69.70
16106;DHT22;8157;51.480;6.624;2023-06-01T03:17:15;14.40;69.60
16106;DHT22;8157;51.480;6.624;2023-06-01T03:19:43;14.30;69.50
16106;DHT22;8157;51.480;6.624;2023-06-01T03:22:19;14.30;69.30
16106;DHT22;8157;51.480;6.624;2023-06-01T03:24:47;14.50;69.20
16106;DHT22;8157;51.480;6.624;2023-06-01T03:27:19;16.10;70.00
16106;DHT22;8157;51.480;6.624;2023-06-01T03:29:49;14.50;69.30
16106;DHT22;8157;51.480;6.624;2023-06-01T03:32:27;15.10;69.70
16106;DHT22;8157;51.480;6.624;2023-06-01T03:35:00;14.50;69.00
16106;DHT22;8157;51.480;6.624;2023-06-01T03:37:28;14.50;69.40
16106;DHT22;8157;51.480;6.624;2023-06-01T03:39:56;14.40;69.40
16106;DHT22;8157;51.480;6.624;2023-06-01T03:42:27;14.70;69.90
16106;DHT22;8157;51.480;6.624;2023-06-01T03:44:55;14.40;70.20
16106;DHT22;8157;51.480;6.624;2023-06-01T03:47:22;15.00;70.50
16106;DHT22;8157;51.480;6.624;2023-06-01T03:49:50;14.30;69.60
16106;DHT22;8157;51.480;6.624;2023-06-01T03:52:17;14.20;69.50
16106;DHT22;8157;51.480;6.624;2023-06-01T03:54:45;14.00;69.80
16106;DHT22;8157;51.480;6.624;2023-06-01T03:57:39;14.30;70.30
16106;DHT22;8157;51.480;6.624;2023-06-01T04:00:07;13.50;70.30
16106;DHT22;8157;51.480;6.624;2023-06-01T04:02:51;14.30;70.40
16106;DHT22;8157;51.480;6.624;2023-06-01T04:05:20;14.40;70.00
16106;DHT22;8157;51.480;6.624;2023-06-01T04:07:48;14.90;70.80
16106;DHT22;8157;51.480;6.624;2023-06-01T04:10:19;15.80;71.50
16106;DHT22;8157;51.480;6.624;2023-06-01T04:12:48;15.00;71.00
16106;DHT22;8157;51.480;6.624;2023-06-01T04:15:32;14.40;71.00
16106;DHT22;8157;51.480;6.624;2023-06-01T04:18:11;13.50;70.30
16106;DHT22;8157;51.480;6.624;2023-06-01T04:21:04;15.30;70.50
16106;DHT22;8157;51.480;6.624;2023-06-01T04:23:39;15.00;70.80
16106;DHT22;8157;51.480;6.624;2023-06-01T04:26:13;14.50;69.40
16106;DHT22;8157;51.480;6.624;2023-06-01T04:28:46;14.30;69.00
16106;DHT22;8157;51.480;6.624;2023-06-01T04:31:20;14.50;69.80
16106;DHT22;8157;51.480;6.624;2023-06-01T04:33:51;14.50;69.40
16106;DHT22;8157;51.480;6.624;2023-06-01T04:36:24;13.70;68.70
16106;DHT22;8157;51.480;6.624;2023-06-01T04:39:07;13.60;68.50
16106;DHT22;8157;51.480;6.624;2023-06-01T04:41:47;14.60;69.70
16106;DHT22;8157;51.480;6.624;2023-06-01T04:44:18;14.70;69.10
16106;DHT22;8157;51.480;6.624;2023-06-01T04:47:03;14.50;69.00
16106;DHT22;8157;51.480;6.624;2023-06-01T04:49:49;15.20;69.60
16106;DHT22;8157;51.480;6.624;2023-06-01T04:52:29;16.20;70.00
16106;DHT22;8157;51.480;6.624;2023-06-01T04:55:11;13.90;69.20
16106;DHT22;8157;51.480;6.624;2023-06-01T04:58:10;15.50;69.60
16106;DHT22;8157;51.480;6.624;2023-06-01T05:00:40;15.30;70.30
16106;DHT22;8157;51.480;6.624;2023-06-01T05:03:12;14.90;69.00
16106;DHT22;8157;51.480;6.624;2023-06-01T05:05:41;14.90;68.60
16106;DHT22;8157;51.480;6.624;2023-06-01T05:08:45;15.30;69.30
16106;DHT22;8157;51.480;6.624;2023-06-01T05:11:19;15.40;69.40
16106;DHT22;8157;51.480;6.624;2023-06-01T05:13:56;15.10;69.90
16106;DHT22;8157;51.480;6.624;2023-06-01T05:16:29;15.10;69.40
16106;DHT22;8157;51.480;6.624;2023-06-01T05:18:59;13.60;68.80
16106;DHT22;8157;51.480;6.624;2023-06-01T05:21:28;15.00;69.80
16106;DHT22;8157;51.480;6.624;2023-06-01T05:24:01;15.80;70.10
16106;DHT22;8157;51.480;6.624;2023-06-01T05:26:32;15.20;69.40
16106;DHT22;8157;51.480;6.624;2023-06-01T05:29:11;15.60;69.40
16106;DHT22;8157;51.480;6.624;2023-06-01T05:31:42;15.30;69.10
16106;DHT22;8157;51.480;6.624;2023-06-01T05:34:19;16.20;69.50
16106;DHT22;8157;51.480;6.624;2023-06-01T05:36:49;16.10;69.30
16106;DHT22;8157;51.480;6.624;2023-06-01T05:39:22;16.40;68.80
16106;DHT22;8157;51.480;6.624;2023-06-01T05:41:56;16.00;68.70
16106;DHT22;8157;51.480;6.624;2023-06-01T05:44:32;15.70;68.00
16106;DHT22;8157;51.480;6.624;2023-06-01T05:47:02;16.10;68.10
16106;DHT22;8157;51.480;6.624;2023-06-01T05:49:33;16.60;67.90
16106;DHT22;8157;51.480;6.624;2023-06-01T05:52:04;15.90;67.50
16106;DHT22;8157;51.480;6.624;2023-06-01T05:54:42;16.50;68.10
16106;DHT22;8157;51.480;6.624;2023-06-01T05:57:17;16.30;67.70
16106;DHT22;8157;51.480;6.624;2023-06-01T05:59:59;17.30;69.00
16106;DHT22;8157;51.480;6.624;2023-06-01T06:02:27;16.20;66.90
16106;DHT22;8157;51.480;6.624;2023-06-01T06:04:58;16.70;67.00
16106;DHT22;8157;51.480;6.624;2023-06-01T06:07:30;16.00;68.20
16106;DHT22;8157;51.480;6.624;2023-06-01T06:10:13;15.50;66.00
16106;DHT22;8157;51.480;6.624;2023-06-01T06:12:41;16.40;67.50
16106;DHT22;8157;51.480;6.624;2023-06-01T06:15:21;16.60;67.30
16106;DHT22;8157;51.480;6.624;2023-06-01T06:17:52;17.50;68.20
16106;DHT22;8157;51.480;6.624;2023-06-01T06:20:22;16.90;68.40
16106;DHT22;8157;51.480;6.624;2023-06-01T06:22:57;18.30;69.60
16106;DHT22;8157;51.480;6.624;2023-06-01T06:25:29;18.10;68.90
16106;DHT22;8157;51.480;6.624;2023-06-01T06:27:59;16.80;67.90
16106;DHT22;8157;51.480;6.624;2023-06-01T06:30:32;18.40;68.30
16106;DHT22;8157;51.480;6.624;2023-06-01T06:33:04;18.00;67.60
16106;DHT22;8157;51.480;6.624;2023-06-01T06:35:33;18.30;67.30
16106;DHT22;8157;51.480;6.624;2023-06-01T06:38:11;18.50;68.00
16106;DHT22;8157;51.480;6.624;2023-06-01T06:40:38;19.80;68.50
16106;DHT22;8157;51.480;6.624;2023-06-01T06:43:21;19.80;66.40
16106;DHT22;8157;51.480;6.624;2023-06-01T06:45:52;19.80;66.80
16106;DHT22;8157;51.480;6.624;2023-06-01T06:48:21;19.20;65.20
16106;DHT22;8157;51.480;6.624;2023-06-01T06:50:51;20.90;66.40
16106;DHT22;8157;51.480;6.624;2023-06-01T06:53:23;19.60;64.40
16106;DHT22;8157;51.480;6.624;2023-06-01T06:56:01;20.00;64.80
16106;DHT22;8157;51.480;6.624;2023-06-01T06:58:32;19.10;63.80
16106;DHT22;8157;51.480;6.624;2023-06-01T07:01:38;19.60;63.10
16106;DHT22;8157;51.480;6.624;2023-06-01T07:04:17;20.00;63.40
16106;DHT22;8157;51.480;6.624;2023-06-01T07:06:45;19.70;63.60
16106;DHT22;8157;51.480;6.624;2023-06-01T07:09:23;20.00;62.30
16106;DHT22;8157;51.480;6.624;2023-06-01T07:11:59;20.10;62.80
16106;DHT22;8157;51.480;6.624;2023-06-01T07:14:27;19.80;64.80
16106;DHT22;8157;51.480;6.624;2023-06-01T07:17:03;19.00;66.30
16106;DHT22;8157;51.480;6.624;2023-06-01T07:19:39;20.80;68.80
16106;DHT22;8157;51.480;6.624;2023-06-01T07:22:09;21.60;67.80
16106;DHT22;8157;51.480;6.624;2023-06-01T07:24:45;21.90;67.10
16106;DHT22;8157;51.480;6.624;2023-06-01T07:30:18;23.60;66.30
16106;DHT22;8157;51.480;6.624;2023-06-01T07:32:49;23.90;63.30
16106;DHT22;8157;51.480;6.624;2023-06-01T07:35:26;25.50;61.30
16106;DHT22;8157;51.480;6.624;2023-06-01T07:38:01;26.00;59.40
16106;DHT22;8157;51.480;6.624;2023-06-01T07:40:29;25.00;57.10
16106;DHT22;8157;51.480;6.624;2023-06-01T07:42:59;25.60;56.90
16106;DHT22;8157;51.480;6.624;2023-06-01T07:48:08;25.40;57.80
16106;DHT22;8157;51.480;6.624;2023-06-01T07:50:36;25.70;58.60
16106;DHT22;8157;51.480;6.624;2023-06-01T07:53:03;26.00;59.00
16106;DHT22;8157;51.480;6.624;2023-06-01T07:55:31;26.50;58.30
16106;DHT22;8157;51.480;6.624;2023-06-01T07:57:58;27.00;57.90
16106;DHT22;8157;51.480;6.624;2023-06-01T08:00:26;27.60;58.00
16106;DHT22;8157;51.480;6.624;2023-06-01T08:02:53;28.00;57.40
16106;DHT22;8157;51.480;6.624;2023-06-01T08:05:21;28.50;55.40
16106;DHT22;8157;51.480;6.624;2023-06-01T08:07:48;28.70;54.40
16106;DHT22;8157;51.480;6.624;2023-06-01T08:10:16;28.90;54.30
16106;DHT22;8157;51.480;6.624;2023-06-01T08:12:43;29.10;54.30
16106;DHT22;8157;51.480;6.624;2023-06-01T08:15:11;29.70;54.10
16106;DHT22;8157;51.480;6.624;2023-06-01T08:17:39;30.00;53.30
16106;DHT22;8157;51.480;6.624;2023-06-01T08:20:07;30.30;52.70
16106;DHT22;8157;51.480;6.624;2023-06-01T08:22:38;30.60;51.80
16106;DHT22;8157;51.480;6.624;2023-06-01T08:25:07;31.00;51.60
16106;DHT22;8157;51.480;6.624;2023-06-01T08:27:34;31.10;50.70
16106;DHT22;8157;51.480;6.624;2023-06-01T08:30:01;31.30;49.90
16106;DHT22;8157;51.480;6.624;2023-06-01T08:32:29;31.20;49.00
16106;DHT22;8157;51.480;6.624;2023-06-01T08:34:57;31.50;49.10
16106;DHT22;8157;51.480;6.624;2023-06-01T08:37:23;31.60;48.80
16106;DHT22;8157;51.480;6.624;2023-06-01T08:39:52;32.10;48.70
16106;DHT22;8157;51.480;6.624;2023-06-01T08:42:25;32.00;48.30
16106;DHT22;8157;51.480;6.624;2023-06-01T08:44:54;32.10;47.80
16106;DHT22;8157;51.480;6.624;2023-06-01T08:47:22;32.30;48.00
16106;DHT22;8157;51.480;6.624;2023-06-01T08:49:50;32.50;48.20
16106;DHT22;8157;51.480;6.624;2023-06-01T08:52:19;32.90;47.90
16106;DHT22;8157;51.480;6.624;2023-06-01T08:54:47;33.20;47.30
16106;DHT22;8157;51.480;6.624;2023-06-01T08:57:16;33.50;47.00
16106;DHT22;8157;51.480;6.624;2023-06-01T08:59:45;33.80;46.60
16106;DHT22;8157;51.480;6.624;2023-06-01T09:02:13;34.00;46.40
16106;DHT22;8157;51.480;6.624;2023-06-01T09:04:40;34.30;46.10
16106;DHT22;8157;51.480;6.624;2023-06-01T09:07:11;34.50;45.00
16106;DHT22;8157;51.480;6.624;2023-06-01T09:09:38;34.70;44.50
16106;DHT22;8157;51.480;6.624;2023-06-01T09:12:19;34.70;44.20
16106;DHT22;8157;51.480;6.624;2023-06-01T09:14:46;35.00;42.70
16106;DHT22;8157;51.480;6.624;2023-06-01T09:17:14;35.00;43.10
16106;DHT22;8157;51.480;6.624;2023-06-01T09:19:44;35.10;42.70
16106;DHT22;8157;51.480;6.624;2023-06-01T09:22:12;35.00;41.70
16106;DHT22;8157;51.480;6.624;2023-06-01T09:24:39;35.00;41.80
16106;DHT22;8157;51.480;6.624;2023-06-01T09:27:07;35.00;42.00
16106;DHT22;8157;51.480;6.624;2023-06-01T09:29:36;35.00;42.00
16106;DHT22;8157;51.480;6.624;2023-06-01T09:32:04;35.10;42.00
16106;DHT22;8157;51.480;6.624;2023-06-01T09:34:31;35.10;42.00
16106;DHT22;8157;51.480;6.624;2023-06-01T09:37:05;35.20;41.80
16106;DHT22;8157;51.480;6.624;2023-06-01T09:39:33;35.40;41.40
16106;DHT22;8157;51.480;6.624;2023-06-01T09:42:01;35.50;41.50
16106;DHT22;8157;51.480;6.624;2023-06-01T09:44:29;35.50;41.00
16106;DHT22;8157;51.480;6.624;2023-06-01T09:46:59;35.60;41.50
16106;DHT22;8157;51.480;6.624;2023-06-01T09:49:28;35.70;40.80
16106;DHT22;8157;51.480;6.624;2023-06-01T09:52:09;35.80;41.00
16106;DHT22;8157;51.480;6.624;2023-06-01T09:54:39;35.90;39.40
16106;DHT22;8157;51.480;6.624;2023-06-01T09:57:07;36.10;40.50
16106;DHT22;8157;51.480;6.624;2023-06-01T09:59:38;35.90;39.90
16106;DHT22;8157;51.480;6.624;2023-06-01T10:02:11;35.90;39.40
16106;DHT22;8157;51.480;6.624;2023-06-01T10:04:40;35.90;39.50
16106;DHT22;8157;51.480;6.624;2023-06-01T10:07:08;36.00;40.30
16106;DHT22;8157;51.480;6.624;2023-06-01T10:09:37;36.10;39.90
16106;DHT22;8157;51.480;6.624;2023-06-01T10:12:07;36.10;39.90
16106;DHT22;8157;51.480;6.624;2023-06-01T10:14:37;36.20;38.80
16106;DHT22;8157;51.480;6.624;2023-06-01T10:17:07;36.10;38.80
16106;DHT22;8157;51.480;6.624;2023-06-01T10:19:36;36.10;38.90
16106;DHT22;8157;51.480;6.624;2023-06-01T10:22:04;36.10;38.80
16106;DHT22;8157;51.480;6.624;2023-06-01T10:24:47;35.90;39.10
16106;DHT22;8157;51.480;6.624;2023-06-01T10:27:19;35.80;37.50
16106;DHT22;8157;51.480;6.624;2023-06-01T10:29:46;35.70;38.30
16106;DHT22;8157;51.480;6.624;2023-06-01T10:32:43;35.70;38.40
16106;DHT22;8157;51.480;6.624;2023-06-01T10:38:26;35.70;37.70
16106;DHT22;8157;51.480;6.624;2023-06-01T10:41:26;35.70;38.00
16106;DHT22;8157;51.480;6.624;2023-06-01T10:43:54;35.50;38.80
16106;DHT22;8157;51.480;6.624;2023-06-01T10:46:39;35.40;38.30
16106;DHT22;8157;51.480;6.624;2023-06-01T10:49:08;35.30;38.00
16106;DHT22;8157;51.480;6.624;2023-06-01T10:51:38;35.20;38.80
16106;DHT22;8157;51.480;6.624;2023-06-01T10:54:26;35.10;38.50
16106;DHT22;8157;51.480;6.624;2023-06-01T10:57:19;35.10;37.50
16106;DHT22;8157;51.480;6.624;2023-06-01T11:02:54;35.00;39.00
16106;DHT22;8157;51.480;6.624;2023-06-01T11:05:43;35.00;38.70
16106;DHT22;8157;51.480;6.624;2023-06-01T11:08:50;35.00;37.30
16106;DHT22;8157;51.480;6.624;2023-06-01T11:11:18;34.80;37.20
16106;DHT22;8157;51.480;6.624;2023-06-01T11:14:05;34.60;38.70
16106;DHT22;8157;51.480;6.624;2023-06-01T11:16:33;34.50;38.40
16106;DHT22;8157;51.480;6.624;2023-06-01T11:19:04;34.40;38.90
16106;DHT22;8157;51.480;6.624;2023-06-01T11:21:34;34.40;39.00
16106;DHT22;8157;51.480;6.624;2023-06-01T11:24:07;34.40;39.10
16106;DHT22;8157;51.480;6.624;2023-06-01T11:26:38;34.40;38.40
16106;DHT22;8157;51.480;6.624;2023-06-01T11:29:12;34.40;38.30
16106;DHT22;8157;51.480;6.624;2023-06-01T11:31:43;34.40;38.20
16106;DHT22;8157;51.480;6.624;2023-06-01T11:34:12;34.20;38.30
16106;DHT22;8157;51.480;6.624;2023-06-01T11:36:42;34.10;38.80
16106;DHT22;8157;51.480;6.624;2023-06-01T11:39:21;34.10;39.10
16106;DHT22;8157;51.480;6.624;2023-06-01T11:41:50;34.00;37.90
16106;DHT22;8157;51.480;6.624;2023-06-01T11:44:18;33.90;38.40
16106;DHT22;8157;51.480;6.624;2023-06-01T11:46:55;33.80;38.40
16106;DHT22;8157;51.480;6.624;2023-06-01T11:49:23;33.70;38.20
16106;DHT22;8157;51.480;6.624;2023-06-01T11:51:50;33.60;38.60
16106;DHT22;8157;51.480;6.624;2023-06-01T11:54:22;33.50;39.20
16106;DHT22;8157;51.480;6.624;2023-06-01T11:56:51;33.50;38.70
16106;DHT22;8157;51.480;6.624;2023-06-01T11:59:19;33.40;39.10
16106;DHT22;8157;51.480;6.624;2023-06-01T12:01:48;33.30;39.60
16106;DHT22;8157;51.480;6.624;2023-06-01T12:04:16;33.30;39.80
16106;DHT22;8157;51.480;6.624;2023-06-01T12:06:44;33.30;39.70
16106;DHT22;8157;51.480;6.624;2023-06-01T12:09:12;33.30;39.20
16106;DHT22;8157;51.480;6.624;2023-06-01T12:11:42;33.30;39.20
16106;DHT22;8157;51.480;6.624;2023-06-01T12:14:12;33.40;39.00
16106;DHT22;8157;51.480;6.624;2023-06-01T12:16:55;33.10;38.60
16106;DHT22;8157;51.480;6.624;2023-06-01T12:19:24;33.00;38.40
16106;DHT22;8157;51.480;6.624;2023-06-01T12:21:53;32.80;38.40
16106;DHT22;8157;51.480;6.624;2023-06-01T12:24:28;32.70;38.40
16106;DHT22;8157;51.480;6.624;2023-06-01T12:26:57;32.50;38.80
16106;DHT22;8157;51.480;6.624;2023-06-01T12:29:37;32.20;38.70
16106;DHT22;8157;51.480;6.624;2023-06-01T12:32:05;32.10;38.90
16106;DHT22;8157;51.480;6.624;2023-06-01T12:34:33;31.90;39.30
16106;DHT22;8157;51.480;6.624;2023-06-01T12:37:11;31.80;39.00
16106;DHT22;8157;51.480;6.624;2023-06-01T12:39:39;31.70;38.70
16106;DHT22;8157;51.480;6.624;2023-06-01T12:42:08;31.60;39.00
16106;DHT22;8157;51.480;6.624;2023-06-01T12:44:37;31.40;39.40
16106;DHT22;8157;51.480;6.624;2023-06-01T12:47:06;31.40;39.30
16106;DHT22;8157;51.480;6.624;2023-06-01T12:49:33;31.20;39.30
16106;DHT22;8157;51.480;6.624;2023-06-01T12:52:01;31.30;39.10
16106;DHT22;8157;51.480;6.624;2023-06-01T12:54:29;31.10;38.90
16106;DHT22;8157;51.480;6.624;2023-06-01T12:56:56;31.00;38.90
16106;DHT22;8157;51.480;6.624;2023-06-01T12:59:23;30.80;38.80
16106;DHT22;8157;51.480;6.624;2023-06-01T13:01:51;30.70;39.10
16106;DHT22;8157;51.480;6.624;2023-06-01T13:04:19;30.60;39.20
16106;DHT22;8157;51.480;6.624;2023-06-01T13:06:46;30.60;39.10
16106;DHT22;8157;51.480;6.624;2023-06-01T13:09:13;30.50;39.10
16106;DHT22;8157;51.480;6.624;2023-06-01T13:11:41;30.30;39.10
16106;DHT22;8157;51.480;6.624;2023-06-01T13:14:08;30.20;39.60
16106;DHT22;8157;51.480;6.624;2023-06-01T13:16:35;30.10;39.70
16106;DHT22;8157;51.480;6.624;2023-06-01T13:19:04;30.00;39.60
16106;DHT22;8157;51.480;6.624;2023-06-01T13:21:31;29.90;39.60
16106;DHT22;8157;51.480;6.624;2023-06-01T13:23:59;29.80;39.50
16106;DHT22;8157;51.480;6.624;2023-06-01T13:26:27;29.70;39.50
16106;DHT22;8157;51.480;6.624;2023-06-01T13:28:54;29.40;39.60
16106;DHT22;8157;51.480;6.624;2023-06-01T13:31:23;29.30;40.00
16106;DHT22;8157;51.480;6.624;2023-06-01T13:33:50;29.30;40.00
16106;DHT22;8157;51.480;6.624;2023-06-01T13:36:19;29.00;40.00
16106;DHT22;8157;51.480;6.624;2023-06-01T13:38:45;28.90;40.00
16106;DHT22;8157;51.480;6.624;2023-06-01T13:41:12;28.80;40.20
16106;DHT22;8157;51.480;6.624;2023-06-01T13:43:40;28.70;39.90
16106;DHT22;8157;51.480;6.624;2023-06-01T13:46:07;28.40;39.70
16106;DHT22;8157;51.480;6.624;2023-06-01T13:48:36;28.10;39.70
16106;DHT22;8157;51.480;6.624;2023-06-01T13:51:03;28.00;40.30
16106;DHT22;8157;51.480;6.624;2023-06-01T13:53:33;27.70;40.70
16106;DHT22;8157;51.480;6.624;2023-06-01T13:56:02;27.50;40.70
16106;DHT22;8157;51.480;6.624;2023-06-01T13:58:30;27.30;41.40
16106;DHT22;8157;51.480;6.624;2023-06-01T14:00:59;27.10;41.40
16106;DHT22;8157;51.480;6.624;2023-06-01T14:03:26;27.00;41.40
16106;DHT22;8157;51.480;6.624;2023-06-01T14:05:54;26.70;41.20
16106;DHT22;8157;51.480;6.624;2023-06-01T14:08:21;26.60;42.10
16106;DHT22;8157;51.480;6.624;2023-06-01T14:10:50;26.40;42.90
16106;DHT22;8157;51.480;6.624;2023-06-01T14:13:17;26.40;43.00
16106;DHT22;8157;51.480;6.624;2023-06-01T14:15:44;26.40;42.60
16106;DHT22;8157;51.480;6.624;2023-06-01T14:18:11;26.30;43.20
16106;DHT22;8157;51.480;6.624;2023-06-01T14:20:39;26.40;43.40
16106;DHT22;8157;51.480;6.624;2023-06-01T14:23:06;26.50;43.30
16106;DHT22;8157;51.480;6.624;2023-06-01T14:25:35;26.20;42.90
16106;DHT22;8157;51.480;6.624;2023-06-01T14:28:04;26.10;43.10
16106;DHT22;8157;51.480;6.624;2023-06-01T14:30:31;26.00;43.40
16106;DHT22;8157;51.480;6.624;2023-06-01T14:32:58;25.80;43.40
16106;DHT22;8157;51.480;6.624;2023-06-01T14:35:26;25.70;43.40
16106;DHT22;8157;51.480;6.624;2023-06-01T14:37:53;25.70;43.50
16106;DHT22;8157;51.480;6.624;2023-06-01T14:40:23;25.70;43.60
16106;DHT22;8157;51.480;6.624;2023-06-01T14:42:50;25.50;43.80
16106;DHT22;8157;51.480;6.624;2023-06-01T14:45:19;25.50;44.30
16106;DHT22;8157;51.480;6.624;2023-06-01T14:47:47;25.40;44.40
16106;DHT22;8157;51.480;6.624;2023-06-01T14:50:14;25.40;44.50
16106;DHT22;8157;51.480;6.624;2023-06-01T14:52:42;25.40;44.90
16106;DHT22;8157;51.480;6.624;2023-06-01T14:55:09;25.40;45.50
16106;DHT22;8157;51.480;6.624;2023-06-01T14:57:37;25.50;46.00
16106;DHT22;8157;51.480;6.624;2023-06-01T15:00:05;25.60;45.70
16106;DHT22;8157;51.480;6.624;2023-06-01T15:02:37;25.70;45.30
16106;DHT22;8157;51.480;6.624;2023-06-01T15:05:05;25.70;45.20
16106;DHT22;8157;51.480;6.624;2023-06-01T15:07:32;25.70;45.30
16106;DHT22;8157;51.480;6.624;2023-06-01T15:10:00;25.70;45.70
16106;DHT22;8157;51.480;6.624;2023-06-01T15:12:27;25.70;46.00
16106;DHT22;8157;51.480;6.624;2023-06-01T15:14:55;25.90;45.90
16106;DHT22;8157;51.480;6.624;2023-06-01T15:17:23;25.80;46.10
16106;DHT22;8157;51.480;6.624;2023-06-01T15:19:51;25.80;46.20
16106;DHT22;8157;51.480;6.624;2023-06-01T15:22:19;25.80;45.60
16106;DHT22;8157;51.480;6.624;2023-06-01T15:24:46;25.80;45.40
16106;DHT22;8157;51.480;6.624;2023-06-01T15:27:13;25.70;45.30
16106;DHT22;8157;51.480;6.624;2023-06-01T15:29:40;25.70;45.30
16106;DHT22;8157;51.480;6.624;2023-06-01T15:32:08;25.70;45.40
16106;DHT22;8157;51.480;6.624;2023-06-01T15:34:35;25.70;45.70
16106;DHT22;8157;51.480;6.624;2023-06-01T15:37:08;25.60;45.90
16106;DHT22;8157;51.480;6.624;2023-06-01T15:39:36;25.80;46.00
16106;DHT22;8157;51.480;6.624;2023-06-01T15:42:04;25.60;45.70
16106;DHT22;8157;51.480;6.624;2023-06-01T15:44:32;25.60;45.70
16106;DHT22;8157;51.480;6.624;2023-06-01T15:46:59;25.70;45.70
16106;DHT22;8157;51.480;6.624;2023-06-01T15:49:26;25.70;45.90
16106;DHT22;8157;51.480;6.624;2023-06-01T15:51:53;25.70;46.30
16106;DHT22;8157;51.480;6.624;2023-06-01T15:54:22;25.70;46.20
16106;DHT22;8157;51.480;6.624;2023-06-01T15:56:49;25.70;45.70
16106;DHT22;8157;51.480;6.624;2023-06-01T15:59:16;25.60;45.70
16106;DHT22;8157;51.480;6.624;2023-06-01T16:01:44;25.60;45.70
16106;DHT22;8157;51.480;6.624;2023-06-01T16:04:11;25.50;45.60
16106;DHT22;8157;51.480;6.624;2023-06-01T16:06:38;25.50;45.60
16106;DHT22;8157;51.480;6.624;2023-06-01T16:09:05;25.40;45.50
16106;DHT22;8157;51.480;6.624;2023-06-01T16:11:34;25.30;45.60
16106;DHT22;8157;51.480;6.624;2023-06-01T16:14:01;25.30;45.60
16106;DHT22;8157;51.480;6.624;2023-06-01T16:16:28;25.20;45.60
16106;DHT22;8157;51.480;6.624;2023-06-01T16:18:55;25.20;45.80
16106;DHT22;8157;51.480;6.624;2023-06-01T16:21:22;25.10;45.90
16106;DHT22;8157;51.480;6.624;2023-06-01T16:23:49;25.20;46.10